createdAt,value
2023-01-31T00:01:50.673Z,113.60
2023-01-31T00:04:18.125Z,100.00
2023-01-31T00:06:51.207Z,102.57
2023-01-31T00:09:19.528Z,102.57
2023-01-31T00:11:47.087Z,112.32
2023-01-31T00:14:19.215Z,110.80
2023-01-31T00:16:46.810Z,113.30
2023-01-31T00:19:14.216Z,100.93
2023-01-31T00:21:43.785Z,107.45
2023-01-31T00:24:14.975Z,106.60
2023-01-31T00:26:42.923Z,105.90
2023-01-31T00:29:10.681Z,102.28
2023-01-31T00:31:39.010Z,101.13
2023-01-31T00:34:07.406Z,103.63
2023-01-31T00:36:35.991Z,102.05
2023-01-31T00:39:05.922Z,101.55
2023-01-31T00:41:36.124Z,97.97
2023-01-31T00:44:06.547Z,108.68
2023-01-31T00:46:34.842Z,105.32
2023-01-31T00:49:03.360Z,105.72
2023-01-31T00:51:31.327Z,99.15
2023-01-31T00:53:58.768Z,111.28
2023-01-31T00:56:26.313Z,106.07
2023-01-31T00:58:54.008Z,104.85
2023-01-31T01:01:24.182Z,112.25
2023-01-31T01:03:55.294Z,109.13
2023-01-31T01:06:23.714Z,107.57
2023-01-31T01:08:52.518Z,101.30
2023-01-31T01:11:25.716Z,101.18
2023-01-31T01:13:53.393Z,111.68
2023-01-31T01:16:26.406Z,102.35
2023-01-31T01:18:55.290Z,99.68
2023-01-31T01:21:27.070Z,107.28
2023-01-31T01:23:57.340Z,111.97
2023-01-31T01:26:27.015Z,99.03
2023-01-31T01:28:56.083Z,105.95
2023-01-31T01:31:30.499Z,106.90
2023-01-31T01:34:04.069Z,113.47
2023-01-31T01:36:35.909Z,110.28
2023-01-31T01:39:05.647Z,115.32
2023-01-31T01:41:36.336Z,126.80
2023-01-31T01:44:24.709Z,132.10
2023-01-31T01:46:52.627Z,130.07
2023-01-31T01:49:36.610Z,132.20
2023-01-31T01:52:08.936Z,136.75
2023-01-31T01:54:45.225Z,132.40
2023-01-31T01:57:16.295Z,127.00
2023-01-31T02:00:04.387Z,141.35
2023-01-31T02:02:44.178Z,124.22
2023-01-31T02:05:15.796Z,125.65
2023-01-31T02:07:43.869Z,132.73
2023-01-31T02:10:17.564Z,125.55
2023-01-31T02:12:46.249Z,123.72
2023-01-31T02:15:14.109Z,117.72
2023-01-31T02:17:41.909Z,121.93
2023-01-31T02:20:37.219Z,121.65
2023-01-31T02:23:16.669Z,114.75
2023-01-31T02:26:08.733Z,112.70
2023-01-31T02:29:00.590Z,120.75
2023-01-31T02:32:03.695Z,122.05
2023-01-31T02:34:37.614Z,110.32
2023-01-31T02:37:07.807Z,102.60
2023-01-31T02:39:46.210Z,101.33
2023-01-31T02:42:40.658Z,107.07
2023-01-31T02:45:11.253Z,104.45
2023-01-31T02:48:11.107Z,106.20
2023-01-31T02:51:02.014Z,98.70
2023-01-31T02:53:47.408Z,106.32
2023-01-31T02:56:31.620Z,96.65
2023-01-31T02:59:06.782Z,97.63
2023-01-31T03:01:45.199Z,102.50
2023-01-31T03:04:14.313Z,99.95
2023-01-31T03:07:00.090Z,108.50
2023-01-31T03:09:41.598Z,95.43
2023-01-31T03:12:22.536Z,101.80
2023-01-31T03:15:08.880Z,95.60
2023-01-31T03:18:00.711Z,103.03
2023-01-31T03:20:32.767Z,108.82
2023-01-31T03:23:17.954Z,100.85
2023-01-31T03:25:48.136Z,96.70
2023-01-31T03:28:21.180Z,102.55
2023-01-31T03:31:01.730Z,106.07
2023-01-31T03:33:39.255Z,99.93
2023-01-31T03:36:30.029Z,106.63
2023-01-31T03:39:24.798Z,93.88
2023-01-31T03:42:45.975Z,102.15
2023-01-31T03:45:47.600Z,91.85
2023-01-31T03:48:18.988Z,96.32
2023-01-31T03:50:54.832Z,96.72
2023-01-31T03:53:30.183Z,103.15
2023-01-31T03:56:02.758Z,94.57
2023-01-31T03:58:40.586Z,103.95
2023-01-31T04:01:09.666Z,105.97
2023-01-31T04:03:50.245Z,101.72
2023-01-31T04:06:17.825Z,96.72
2023-01-31T04:08:45.508Z,105.05
2023-01-31T04:11:14.987Z,105.63
2023-01-31T04:13:42.910Z,102.35
2023-01-31T04:16:10.402Z,111.70
2023-01-31T04:18:38.793Z,107.20
2023-01-31T04:21:06.436Z,114.85
2023-01-31T04:23:33.900Z,102.97
2023-01-31T04:26:01.310Z,104.43
2023-01-31T04:28:29.227Z,117.43
2023-01-31T04:30:57.692Z,104.13
2023-01-31T04:33:25.139Z,113.32
2023-01-31T04:35:52.785Z,108.55
2023-01-31T04:38:20.207Z,117.10
2023-01-31T04:40:47.648Z,113.13
2023-01-31T04:43:15.187Z,113.45
2023-01-31T04:45:42.987Z,123.40
2023-01-31T04:48:10.554Z,123.95
2023-01-31T04:50:38.219Z,115.88
2023-01-31T04:53:06.394Z,121.55
2023-01-31T04:55:33.778Z,123.07
2023-01-31T04:58:01.359Z,130.55
2023-01-31T05:00:29.176Z,127.40
2023-01-31T05:02:56.774Z,129.98
2023-01-31T05:05:24.267Z,135.95
2023-01-31T05:07:51.653Z,133.52
2023-01-31T05:10:19.217Z,131.77
2023-01-31T05:12:47.321Z,140.40
2023-01-31T05:15:14.931Z,136.15
2023-01-31T05:17:42.374Z,122.25
2023-01-31T05:20:10.652Z,124.55
2023-01-31T05:22:38.013Z,122.32
2023-01-31T05:25:06.005Z,131.68
2023-01-31T05:27:33.649Z,133.07
2023-01-31T05:30:01.388Z,131.70
2023-01-31T05:32:29.005Z,126.93
2023-01-31T05:34:56.360Z,125.75
2023-01-31T05:37:23.757Z,120.85
2023-01-31T05:39:51.129Z,124.53
2023-01-31T05:42:18.473Z,125.18
2023-01-31T05:44:45.867Z,118.20
2023-01-31T05:47:13.328Z,117.45
2023-01-31T05:49:40.758Z,140.25
2023-01-31T05:52:08.181Z,135.45
2023-01-31T05:54:35.597Z,128.30
2023-01-31T05:57:02.990Z,133.75
2023-01-31T05:59:32.413Z,120.57
2023-01-31T06:02:02.207Z,108.05
2023-01-31T06:04:29.839Z,132.70
2023-01-31T06:06:57.229Z,118.85
2023-01-31T06:09:24.783Z,122.85
2023-01-31T06:11:52.188Z,117.85
2023-01-31T06:14:19.760Z,124.43
2023-01-31T06:16:47.291Z,133.95
2023-01-31T06:19:14.693Z,122.03
2023-01-31T06:21:42.144Z,122.05
2023-01-31T06:24:09.703Z,120.57
2023-01-31T06:26:37.186Z,119.05
2023-01-31T06:29:05.504Z,157.38
2023-01-31T06:31:33.259Z,119.47
2023-01-31T06:34:00.722Z,125.35
2023-01-31T06:36:28.167Z,112.22
2023-01-31T06:38:55.882Z,118.22
2023-01-31T06:41:23.338Z,115.22
2023-01-31T06:43:51.325Z,120.13
2023-01-31T06:46:18.774Z,122.15
2023-01-31T06:48:47.184Z,113.70
2023-01-31T06:51:18.134Z,115.78
2023-01-31T06:53:46.453Z,116.63
2023-01-31T06:56:13.840Z,125.95
2023-01-31T06:58:41.832Z,142.88
2023-01-31T07:01:11.797Z,128.00
2023-01-31T07:03:39.803Z,140.43
2023-01-31T07:06:08.393Z,140.18
2023-01-31T07:08:37.514Z,132.63
2023-01-31T07:11:05.458Z,132.95
2023-01-31T07:13:33.194Z,132.73
2023-01-31T07:16:01.039Z,131.75
2023-01-31T07:18:28.639Z,120.95
2023-01-31T07:20:56.272Z,127.97
2023-01-31T07:23:23.825Z,124.50
2023-01-31T07:25:51.861Z,136.73
2023-01-31T07:28:19.374Z,141.73
2023-01-31T07:30:48.492Z,125.05
2023-01-31T07:33:15.992Z,113.13
2023-01-31T07:35:43.679Z,108.40
2023-01-31T07:38:11.537Z,107.72
2023-01-31T07:40:40.241Z,106.82
2023-01-31T07:43:07.812Z,107.60
2023-01-31T07:45:35.679Z,119.82
2023-01-31T07:48:03.403Z,109.90
2023-01-31T07:50:30.936Z,111.38
2023-01-31T07:52:59.212Z,99.47
2023-01-31T07:55:27.159Z,94.85
2023-01-31T07:57:54.649Z,80.22
2023-01-31T08:00:42.119Z,76.80
2023-01-31T08:03:33.450Z,85.43
2023-01-31T08:06:03.680Z,74.95
2023-01-31T08:08:31.228Z,75.47
2023-01-31T08:10:58.741Z,80.18
2023-01-31T08:13:27.047Z,78.85
2023-01-31T08:15:54.652Z,78.85
2023-01-31T08:18:22.102Z,75.63
2023-01-31T08:20:49.725Z,73.32
2023-01-31T08:23:17.307Z,84.10
2023-01-31T08:25:44.740Z,78.00
2023-01-31T08:28:12.165Z,79.22
2023-01-31T08:30:50.306Z,70.28
2023-01-31T08:33:24.508Z,74.05
2023-01-31T08:35:51.991Z,70.07
2023-01-31T08:38:19.509Z,72.22
2023-01-31T08:40:47.046Z,71.07
2023-01-31T08:43:14.725Z,70.10
2023-01-31T08:45:42.375Z,74.95
2023-01-31T08:48:09.829Z,81.38
2023-01-31T08:50:39.186Z,78.55
2023-01-31T08:53:08.226Z,76.28
2023-01-31T08:55:36.460Z,73.93
2023-01-31T08:58:04.334Z,85.50
2023-01-31T09:00:32.520Z,75.25
2023-01-31T09:03:00.910Z,77.50
2023-01-31T09:05:30.217Z,69.85
2023-01-31T09:07:57.699Z,72.10
2023-01-31T09:10:25.272Z,64.07
2023-01-31T09:12:52.772Z,65.22
2023-01-31T09:15:20.521Z,64.90
2023-01-31T09:17:48.087Z,63.90
2023-01-31T09:20:15.636Z,66.30
2023-01-31T09:22:43.109Z,65.82
2023-01-31T09:25:11.133Z,68.72
2023-01-31T09:27:39.810Z,67.65
2023-01-31T09:30:09.238Z,63.80
2023-01-31T09:32:37.314Z,56.10
2023-01-31T09:35:04.942Z,53.45
2023-01-31T09:37:32.392Z,63.28
2023-01-31T09:39:59.947Z,53.13
2023-01-31T09:42:48.418Z,52.85
2023-01-31T09:45:26.330Z,60.78
2023-01-31T09:47:56.448Z,53.42
2023-01-31T09:50:40.326Z,52.20
2023-01-31T09:53:13.097Z,45.90
2023-01-31T09:55:48.823Z,53.33
2023-01-31T09:58:23.301Z,51.90
2023-01-31T10:01:11.883Z,52.95
2023-01-31T10:04:23.266Z,42.17
2023-01-31T10:07:18.536Z,45.85
2023-01-31T10:10:23.560Z,46.97
2023-01-31T10:12:57.931Z,47.63
2023-01-31T10:15:25.338Z,52.85
2023-01-31T10:17:57.809Z,53.25
2023-01-31T10:20:40.945Z,53.55
2023-01-31T10:23:30.359Z,60.85
2023-01-31T10:26:04.451Z,64.10
2023-01-31T10:28:43.125Z,55.08
2023-01-31T10:31:21.726Z,54.80
2023-01-31T10:33:59.116Z,58.45
2023-01-31T10:36:42.917Z,45.90
2023-01-31T10:39:29.197Z,48.28
2023-01-31T10:42:02.435Z,44.42
2023-01-31T10:44:57.577Z,50.20
2023-01-31T10:47:34.896Z,47.95
2023-01-31T10:50:12.225Z,52.45
2023-01-31T10:52:39.627Z,52.38
2023-01-31T10:55:36.210Z,58.30
2023-01-31T10:58:03.728Z,62.25
2023-01-31T11:00:33.127Z,58.50
2023-01-31T11:03:00.575Z,63.25
2023-01-31T11:05:29.899Z,64.15
2023-01-31T11:08:03.397Z,68.95
2023-01-31T11:10:32.939Z,68.47
2023-01-31T11:13:04.618Z,69.13
2023-01-31T11:15:46.815Z,71.72
2023-01-31T11:18:25.444Z,63.38
2023-01-31T11:20:53.449Z,66.50
2023-01-31T11:23:26.898Z,64.70
2023-01-31T11:25:55.209Z,68.78
2023-01-31T11:28:33.342Z,71.82
2023-01-31T11:31:01.528Z,80.65
2023-01-31T11:34:02.383Z,64.05
2023-01-31T11:36:42.284Z,80.32
2023-01-31T11:39:34.577Z,75.28
2023-01-31T11:42:20.141Z,77.22
2023-01-31T11:45:16.160Z,66.70
2023-01-31T11:47:47.545Z,61.63
2023-01-31T11:50:25.620Z,51.53
2023-01-31T11:53:00.593Z,75.10
2023-01-31T11:55:35.732Z,69.90
2023-01-31T11:58:06.625Z,72.78
2023-01-31T12:00:34.551Z,72.85
2023-01-31T12:03:08.548Z,71.38
2023-01-31T12:05:50.980Z,76.72
2023-01-31T12:08:39.306Z,73.32
2023-01-31T12:11:29.087Z,77.32
2023-01-31T12:14:14.618Z,76.03
2023-01-31T12:16:43.685Z,75.38
2023-01-31T12:19:14.347Z,120.57
2023-01-31T12:22:25.455Z,84.10
2023-01-31T12:25:28.901Z,77.32
2023-01-31T12:28:17.848Z,135.73
2023-01-31T12:31:05.373Z,120.38
2023-01-31T12:33:44.719Z,64.93
2023-01-31T12:36:20.463Z,77.53
2023-01-31T12:38:50.660Z,72.30
2023-01-31T12:41:36.432Z,76.53
2023-01-31T12:44:17.868Z,72.18
2023-01-31T12:47:11.108Z,66.38
2023-01-31T12:50:01.501Z,66.45
2023-01-31T12:52:47.580Z,65.63
2023-01-31T12:55:33.829Z,69.10
2023-01-31T12:58:35.100Z,59.80
2023-01-31T13:01:06.732Z,58.17
2023-01-31T13:04:28.517Z,49.35
2023-01-31T13:07:10.814Z,57.20
2023-01-31T13:09:38.666Z,98.72
2023-01-31T13:12:28.723Z,66.88
2023-01-31T13:15:33.674Z,61.30
2023-01-31T13:18:05.680Z,50.85
2023-01-31T13:20:51.319Z,52.10
2023-01-31T13:23:46.651Z,52.75
2023-01-31T13:26:18.319Z,49.25
2023-01-31T13:29:16.700Z,55.88
2023-01-31T13:31:55.544Z,44.88
2023-01-31T13:34:37.207Z,46.67
2023-01-31T13:37:15.485Z,44.92
2023-01-31T13:39:47.183Z,45.33
2023-01-31T13:42:16.137Z,53.75
2023-01-31T13:44:46.007Z,44.58
2023-01-31T13:47:13.323Z,46.20
2023-01-31T13:50:06.174Z,41.58
2023-01-31T13:52:39.954Z,43.83
2023-01-31T13:55:32.728Z,47.22
2023-01-31T13:58:06.493Z,48.28
2023-01-31T14:00:49.451Z,45.53
2023-01-31T14:03:19.806Z,60.17
2023-01-31T14:05:57.417Z,47.30
2023-01-31T14:08:27.876Z,41.05
2023-01-31T14:10:57.456Z,45.30
2023-01-31T14:13:33.662Z,49.53
2023-01-31T14:16:02.302Z,47.70
2023-01-31T14:18:56.073Z,41.67
2023-01-31T14:21:29.557Z,40.38
2023-01-31T14:24:02.183Z,37.92
2023-01-31T14:26:52.467Z,45.13
2023-01-31T14:29:25.218Z,45.22
2023-01-31T14:31:55.949Z,47.92
2023-01-31T14:34:29.925Z,44.13
2023-01-31T14:37:24.204Z,46.47
2023-01-31T14:40:22.318Z,49.97
2023-01-31T14:43:10.418Z,49.72
2023-01-31T14:45:49.744Z,42.75
2023-01-31T14:48:57.988Z,51.85
2023-01-31T14:52:00.622Z,51.35
2023-01-31T14:54:37.176Z,52.88
2023-01-31T14:57:21.660Z,42.92
2023-01-31T14:59:59.650Z,49.13
2023-01-31T15:02:49.896Z,51.15
2023-01-31T15:05:32.555Z,50.28
2023-01-31T15:08:08.888Z,57.88
2023-01-31T15:10:58.181Z,53.38
2023-01-31T15:13:48.187Z,48.78
2023-01-31T15:16:15.566Z,53.95
2023-01-31T15:18:46.020Z,52.75
2023-01-31T15:21:23.566Z,51.72
2023-01-31T15:23:52.742Z,56.83
2023-01-31T15:26:23.663Z,59.97
2023-01-31T15:28:52.974Z,59.60
2023-01-31T15:31:44.533Z,53.95
2023-01-31T15:34:28.013Z,62.25
2023-01-31T15:37:27.403Z,63.13
2023-01-31T15:40:15.986Z,67.15
2023-01-31T15:42:43.387Z,62.03
2023-01-31T15:45:30.595Z,68.00
2023-01-31T15:48:02.216Z,115.05
2023-01-31T15:50:32.924Z,66.50
2023-01-31T15:53:14.550Z,68.65
2023-01-31T15:55:42.428Z,74.95
2023-01-31T15:58:19.081Z,76.65
2023-01-31T16:00:53.718Z,68.90
2023-01-31T16:03:24.106Z,71.03
2023-01-31T16:05:53.815Z,74.70
2023-01-31T16:08:34.193Z,78.38
2023-01-31T16:11:06.504Z,79.00
2023-01-31T16:16:10.434Z,78.88
2023-01-31T16:18:38.986Z,78.43
2023-01-31T16:21:29.636Z,79.50
2023-01-31T16:24:02.683Z,80.00
2023-01-31T16:26:37.089Z,85.03
2023-01-31T16:29:13.485Z,87.07
2023-01-31T16:31:52.936Z,78.97
2023-01-31T16:34:38.478Z,83.18
2023-01-31T16:37:09.940Z,85.32
2023-01-31T16:39:49.297Z,93.43
2023-01-31T16:42:18.461Z,85.82
2023-01-31T16:44:46.368Z,84.28
2023-01-31T16:47:33.964Z,90.13
2023-01-31T16:50:32.775Z,93.20
2023-01-31T16:53:19.100Z,95.63
2023-01-31T16:55:46.593Z,91.68
2023-01-31T16:58:52.393Z,92.80
2023-01-31T17:01:22.034Z,95.65
2023-01-31T17:04:12.897Z,97.57
2023-01-31T17:06:51.304Z,96.63
2023-01-31T17:09:23.076Z,102.68
2023-01-31T17:11:53.219Z,93.82
2023-01-31T17:14:20.683Z,89.40
2023-01-31T17:16:51.779Z,101.72
2023-01-31T17:19:19.306Z,102.20
2023-01-31T17:21:47.544Z,98.00
2023-01-31T17:24:18.287Z,110.82
2023-01-31T17:26:46.130Z,105.30
2023-01-31T17:29:13.579Z,115.65
2023-01-31T17:31:42.187Z,96.65
2023-01-31T17:34:16.683Z,102.10
2023-01-31T17:36:44.920Z,114.43
2023-01-31T17:39:12.388Z,112.80
2023-01-31T17:41:41.520Z,105.60
2023-01-31T17:44:13.947Z,108.90
2023-01-31T17:46:43.352Z,108.38
2023-01-31T17:49:11.111Z,108.45
2023-01-31T17:53:03.219Z,112.78
2023-01-31T18:01:11.358Z,115.13
2023-01-31T18:04:33.230Z,105.25
2023-01-31T18:07:21.807Z,118.05
2023-01-31T18:10:06.054Z,109.13
2023-01-31T18:17:02.480Z,130.25
2023-01-31T18:19:33.108Z,127.25
2023-01-31T18:22:01.504Z,124.50
2023-01-31T18:25:10.366Z,133.57
2023-01-31T18:50:04.866Z,125.63
2023-01-31T18:52:36.449Z,127.82
2023-01-31T18:55:09.861Z,127.78
2023-01-31T18:57:39.342Z,122.15
2023-01-31T19:00:40.775Z,114.07
2023-01-31T19:10:51.720Z,114.28
2023-01-31T19:13:43.470Z,110.80
2023-01-31T19:23:57.909Z,121.93
2023-01-31T19:26:30.406Z,132.60
2023-01-31T19:30:30.840Z,131.35
2023-01-31T20:44:15.923Z,183.77
2023-01-31T20:51:01.260Z,157.00
2023-01-31T21:21:23.709Z,178.52
2023-01-31T21:23:58.133Z,169.85
2023-01-31T21:39:13.107Z,183.85
2023-01-31T21:42:50.112Z,197.75
2023-01-31T21:46:47.336Z,229.82
2023-01-31T22:22:09.036Z,153.57
2023-01-31T23:22:18.260Z,121.63
